sensor_id;sensor_type;location;lat;lon;timestamp;P1;durP1;ratioP1;P2;durP2;ratioP2
24713;SDS011;12820;51.580;5.010;2022-08-07T00:02:00;5.93;;;3.00;;
24713;SDS011;12820;51.580;5.010;2022-08-07T00:07:28;7.38;;;3.20;;
24713;SDS011;12820;51.580;5.010;2022-08-07T00:12:42;8.00;;;3.22;;
24713;SDS011;12820;51.580;5.010;2022-08-07T00:18:02;7.35;;;3.63;;
24713;SDS011;12820;51.580;5.010;2022-08-07T00:23:12;7.90;;;3.88;;
24713;SDS011;12820;51.580;5.010;2022-08-07T00:28:18;6.38;;;3.38;;
24713;SDS011;12820;51.580;5.010;2022-08-07T00:33:41;6.65;;;3.35;;
24713;SDS011;12820;51.580;5.010;2022-08-07T00:38:50;6.95;;;3.38;;
24713;SDS011;12820;51.580;5.010;2022-08-07T00:44:01;6.47;;;3.53;;
24713;SDS011;12820;51.580;5.010;2022-08-07T00:49:03;6.45;;;3.42;;
24713;SDS011;12820;51.580;5.010;2022-08-07T00:54:08;6.53;;;3.38;;
24713;SDS011;12820;51.580;5.010;2022-08-07T00:59:32;7.38;;;4.13;;
24713;SDS011;12820;51.580;5.010;2022-08-07T01:04:37;8.02;;;4.15;;
24713;SDS011;12820;51.580;5.010;2022-08-07T01:09:50;6.35;;;3.17;;
24713;SDS011;12820;51.580;5.010;2022-08-07T01:15:19;7.18;;;3.80;;
24713;SDS011;12820;51.580;5.010;2022-08-07T01:20:30;8.95;;;3.72;;
24713;SDS011;12820;51.580;5.010;2022-08-07T01:25:49;8.05;;;3.85;;
24713;SDS011;12820;51.580;5.010;2022-08-07T01:31:03;7.75;;;4.15;;
24713;SDS011;12820;51.580;5.010;2022-08-07T01:36:15;7.97;;;4.15;;
24713;SDS011;12820;51.580;5.010;2022-08-07T01:41:25;8.48;;;4.35;;
24713;SDS011;12820;51.580;5.010;2022-08-07T01:46:39;8.88;;;4.28;;
24713;SDS011;12820;51.580;5.010;2022-08-07T01:51:49;8.97;;;4.60;;
24713;SDS011;12820;51.580;5.010;2022-08-07T01:57:18;10.73;;;4.18;;
24713;SDS011;12820;51.580;5.010;2022-08-07T02:02:35;10.48;;;4.93;;
24713;SDS011;12820;51.580;5.010;2022-08-07T02:08:07;7.28;;;4.07;;
24713;SDS011;12820;51.580;5.010;2022-08-07T02:13:15;8.88;;;5.00;;
24713;SDS011;12820;51.580;5.010;2022-08-07T02:18:36;10.60;;;4.53;;
24713;SDS011;12820;51.580;5.010;2022-08-07T02:23:54;8.85;;;5.07;;
24713;SDS011;12820;51.580;5.010;2022-08-07T02:28:58;11.48;;;5.10;;
24713;SDS011;12820;51.580;5.010;2022-08-07T02:34:08;9.02;;;4.63;;
24713;SDS011;12820;51.580;5.010;2022-08-07T02:39:29;9.38;;;5.20;;
24713;SDS011;12820;51.580;5.010;2022-08-07T02:45:02;12.02;;;5.88;;
24713;SDS011;12820;51.580;5.010;2022-08-07T02:50:35;14.55;;;5.88;;
24713;SDS011;12820;51.580;5.010;2022-08-07T02:55:47;11.57;;;5.65;;
24713;SDS011;12820;51.580;5.010;2022-08-07T03:01:12;14.10;;;6.20;;
24713;SDS011;12820;51.580;5.010;2022-08-07T03:06:42;10.70;;;5.63;;
24713;SDS011;12820;51.580;5.010;2022-08-07T03:11:55;12.90;;;6.32;;
24713;SDS011;12820;51.580;5.010;2022-08-07T03:17:11;11.65;;;6.22;;
24713;SDS011;12820;51.580;5.010;2022-08-07T03:22:21;11.38;;;6.53;;
24713;SDS011;12820;51.580;5.010;2022-08-07T03:27:37;12.88;;;6.60;;
24713;SDS011;12820;51.580;5.010;2022-08-07T03:33:00;11.63;;;6.43;;
24713;SDS011;12820;51.580;5.010;2022-08-07T03:38:08;12.88;;;7.13;;
24713;SDS011;12820;51.580;5.010;2022-08-07T03:43:34;13.35;;;7.68;;
24713;SDS011;12820;51.580;5.010;2022-08-07T03:48:47;13.73;;;7.55;;
24713;SDS011;12820;51.580;5.010;2022-08-07T03:54:27;14.93;;;7.68;;
24713;SDS011;12820;51.580;5.010;2022-08-07T04:00:02;11.70;;;6.60;;
24713;SDS011;12820;51.580;5.010;2022-08-07T04:05:34;12.07;;;6.72;;
24713;SDS011;12820;51.580;5.010;2022-08-07T04:11:16;14.13;;;7.22;;
24713;SDS011;12820;51.580;5.010;2022-08-07T04:16:57;12.82;;;7.18;;
24713;SDS011;12820;51.580;5.010;2022-08-07T04:22:23;15.18;;;6.95;;
24713;SDS011;12820;51.580;5.010;2022-08-07T04:27:50;12.90;;;6.65;;
24713;SDS011;12820;51.580;5.010;2022-08-07T04:33:20;13.15;;;7.03;;
24713;SDS011;12820;51.580;5.010;2022-08-07T04:38:45;11.73;;;6.57;;
24713;SDS011;12820;51.580;5.010;2022-08-07T04:44:06;13.98;;;6.75;;
24713;SDS011;12820;51.580;5.010;2022-08-07T04:49:44;12.98;;;6.13;;
24713;SDS011;12820;51.580;5.010;2022-08-07T05:02:01;12.40;;;6.40;;
24713;SDS011;12820;51.580;5.010;2022-08-07T05:07:41;13.05;;;6.07;;
24713;SDS011;12820;51.580;5.010;2022-08-07T05:13:13;10.80;;;5.55;;
24713;SDS011;12820;51.580;5.010;2022-08-07T05:18:59;13.77;;;6.38;;
24713;SDS011;12820;51.580;5.010;2022-08-07T05:24:25;11.68;;;5.82;;
24713;SDS011;12820;51.580;5.010;2022-08-07T05:29:59;10.32;;;5.63;;
24713;SDS011;12820;51.580;5.010;2022-08-07T05:35:22;17.42;;;5.40;;
24713;SDS011;12820;51.580;5.010;2022-08-07T05:41:02;11.50;;;5.45;;
24713;SDS011;12820;51.580;5.010;2022-08-07T05:46:35;14.73;;;5.80;;
24713;SDS011;12820;51.580;5.010;2022-08-07T05:51:58;10.32;;;5.15;;
24713;SDS011;12820;51.580;5.010;2022-08-07T05:57:22;9.02;;;5.05;;
24713;SDS011;12820;51.580;5.010;2022-08-07T06:02:32;9.23;;;4.80;;
24713;SDS011;12820;51.580;5.010;2022-08-07T06:07:38;8.40;;;4.45;;
24713;SDS011;12820;51.580;5.010;2022-08-07T06:13:02;8.93;;;4.07;;
24713;SDS011;12820;51.580;5.010;2022-08-07T06:18:07;9.23;;;4.15;;
24713;SDS011;12820;51.580;5.010;2022-08-07T06:23:13;8.95;;;3.38;;
24713;SDS011;12820;51.580;5.010;2022-08-07T06:28:46;6.93;;;3.40;;
24713;SDS011;12820;51.580;5.010;2022-08-07T06:33:51;8.48;;;3.72;;
24713;SDS011;12820;51.580;5.010;2022-08-07T06:38:55;8.43;;;4.20;;
24713;SDS011;12820;51.580;5.010;2022-08-07T06:44:18;9.27;;;4.38;;
24713;SDS011;12820;51.580;5.010;2022-08-07T06:49:25;6.07;;;2.80;;
24713;SDS011;12820;51.580;5.010;2022-08-07T06:54:28;11.57;;;3.60;;
24713;SDS011;12820;51.580;5.010;2022-08-07T06:59:53;12.38;;;3.72;;
24713;SDS011;12820;51.580;5.010;2022-08-07T07:05:19;6.90;;;3.20;;
24713;SDS011;12820;51.580;5.010;2022-08-07T07:10:42;7.32;;;3.35;;
24713;SDS011;12820;51.580;5.010;2022-08-07T07:16:03;8.25;;;3.25;;
24713;SDS011;12820;51.580;5.010;2022-08-07T07:21:14;7.13;;;2.70;;
24713;SDS011;12820;51.580;5.010;2022-08-07T07:26:21;7.22;;;2.58;;
24713;SDS011;12820;51.580;5.010;2022-08-07T07:31:40;7.28;;;2.47;;
24713;SDS011;12820;51.580;5.010;2022-08-07T07:36:47;6.25;;;3.03;;
24713;SDS011;12820;51.580;5.010;2022-08-07T07:41:55;5.55;;;2.67;;
24713;SDS011;12820;51.580;5.010;2022-08-07T07:47:14;7.10;;;2.60;;
24713;SDS011;12820;51.580;5.010;2022-08-07T07:52:24;7.45;;;2.70;;
24713;SDS011;12820;51.580;5.010;2022-08-07T07:57:29;5.65;;;2.47;;
24713;SDS011;12820;51.580;5.010;2022-08-07T08:02:55;5.35;;;2.72;;
24713;SDS011;12820;51.580;5.010;2022-08-07T08:08:07;5.57;;;2.67;;
24713;SDS011;12820;51.580;5.010;2022-08-07T08:13:30;7.68;;;2.92;;
24713;SDS011;12820;51.580;5.010;2022-08-07T08:18:55;5.15;;;2.67;;
24713;SDS011;12820;51.580;5.010;2022-08-07T08:24:01;5.13;;;2.60;;
24713;SDS011;12820;51.580;5.010;2022-08-07T08:29:49;7.68;;;2.75;;
24713;SDS011;12820;51.580;5.010;2022-08-07T08:34:57;5.30;;;2.83;;
24713;SDS011;12820;51.580;5.010;2022-08-07T08:40:00;6.32;;;2.30;;
24713;SDS011;12820;51.580;5.010;2022-08-07T08:45:17;5.30;;;2.20;;
24713;SDS011;12820;51.580;5.010;2022-08-07T08:50:29;6.57;;;2.60;;
24713;SDS011;12820;51.580;5.010;2022-08-07T08:55:43;6.18;;;2.75;;
24713;SDS011;12820;51.580;5.010;2022-08-07T09:00:59;6.43;;;2.38;;
24713;SDS011;12820;51.580;5.010;2022-08-07T09:06:20;5.57;;;2.50;;
24713;SDS011;12820;51.580;5.010;2022-08-07T09:11:45;6.47;;;2.35;;
24713;SDS011;12820;51.580;5.010;2022-08-07T09:17:09;4.50;;;2.10;;
24713;SDS011;12820;51.580;5.010;2022-08-07T09:22:56;4.75;;;2.03;;
24713;SDS011;12820;51.580;5.010;2022-08-07T09:28:27;5.35;;;2.13;;
24713;SDS011;12820;51.580;5.010;2022-08-07T10:06:56;3.83;;;1.40;;
24713;SDS011;12820;51.580;5.010;2022-08-07T10:12:41;4.78;;;1.70;;
24713;SDS011;12820;51.580;5.010;2022-08-07T10:18:07;6.10;;;1.73;;
24713;SDS011;12820;51.580;5.010;2022-08-07T10:34:26;4.05;;;1.75;;
24713;SDS011;12820;51.580;5.010;2022-08-07T10:45:16;3.30;;;1.27;;
24713;SDS011;12820;51.580;5.010;2022-08-07T10:51:06;3.20;;;1.60;;
24713;SDS011;12820;51.580;5.010;2022-08-07T11:02:10;15.35;;;8.13;;
24713;SDS011;12820;51.580;5.010;2022-08-07T11:07:45;4.03;;;1.25;;
24713;SDS011;12820;51.580;5.010;2022-08-07T11:24:10;4.70;;;1.30;;
24713;SDS011;12820;51.580;5.010;2022-08-07T11:34:57;4.40;;;1.35;;
24713;SDS011;12820;51.580;5.010;2022-08-07T11:45:29;5.32;;;1.20;;
24713;SDS011;12820;51.580;5.010;2022-08-07T11:50:59;3.15;;;1.50;;
24713;SDS011;12820;51.580;5.010;2022-08-07T12:02:17;3.03;;;1.10;;
24713;SDS011;12820;51.580;5.010;2022-08-07T12:07:50;2.75;;;1.10;;
24713;SDS011;12820;51.580;5.010;2022-08-07T12:13:07;3.22;;;1.10;;
24713;SDS011;12820;51.580;5.010;2022-08-07T12:18:21;3.17;;;1.15;;
24713;SDS011;12820;51.580;5.010;2022-08-07T12:23:39;4.70;;;1.30;;
24713;SDS011;12820;51.580;5.010;2022-08-07T12:34:41;3.08;;;1.10;;
24713;SDS011;12820;51.580;5.010;2022-08-07T12:39:57;2.42;;;1.00;;
24713;SDS011;12820;51.580;5.010;2022-08-07T12:45:06;3.72;;;1.10;;
24713;SDS011;12820;51.580;5.010;2022-08-07T12:56:11;2.65;;;1.00;;
24713;SDS011;12820;51.580;5.010;2022-08-07T13:01:31;3.67;;;0.90;;
24713;SDS011;12820;51.580;5.010;2022-08-07T13:17:43;2.90;;;1.00;;
24713;SDS011;12820;51.580;5.010;2022-08-07T13:22:59;2.58;;;1.10;;
24713;SDS011;12820;51.580;5.010;2022-08-07T13:28:29;3.97;;;0.90;;
24713;SDS011;12820;51.580;5.010;2022-08-07T13:44:55;2.13;;;0.70;;
24713;SDS011;12820;51.580;5.010;2022-08-07T13:50:19;2.47;;;0.70;;
24713;SDS011;12820;51.580;5.010;2022-08-07T13:55:38;3.97;;;1.10;;
24713;SDS011;12820;51.580;5.010;2022-08-07T14:00:56;3.55;;;1.05;;
24713;SDS011;12820;51.580;5.010;2022-08-07T14:06:10;2.88;;;0.70;;
24713;SDS011;12820;51.580;5.010;2022-08-07T14:11:14;2.55;;;0.80;;
24713;SDS011;12820;51.580;5.010;2022-08-07T14:16:28;3.67;;;0.95;;
24713;SDS011;12820;51.580;5.010;2022-08-07T14:21:38;1.70;;;0.70;;
24713;SDS011;12820;51.580;5.010;2022-08-07T14:27:05;2.25;;;0.70;;
24713;SDS011;12820;51.580;5.010;2022-08-07T14:32:30;2.78;;;1.17;;
24713;SDS011;12820;51.580;5.010;2022-08-07T14:42:45;2.33;;;0.90;;
24713;SDS011;12820;51.580;5.010;2022-08-07T14:48:21;2.85;;;1.20;;
24713;SDS011;12820;51.580;5.010;2022-08-07T14:53:38;3.17;;;1.00;;
24713;SDS011;12820;51.580;5.010;2022-08-07T14:59:06;3.25;;;1.00;;
24713;SDS011;12820;51.580;5.010;2022-08-07T15:04:15;2.70;;;0.87;;
24713;SDS011;12820;51.580;5.010;2022-08-07T15:09:19;5.13;;;1.33;;
24713;SDS011;12820;51.580;5.010;2022-08-07T15:14:52;2.70;;;1.10;;
24713;SDS011;12820;51.580;5.010;2022-08-07T15:20:00;2.60;;;1.08;;
24713;SDS011;12820;51.580;5.010;2022-08-07T15:25:25;3.33;;;1.00;;
24713;SDS011;12820;51.580;5.010;2022-08-07T15:30:41;4.00;;;1.40;;
24713;SDS011;12820;51.580;5.010;2022-08-07T15:36:06;3.42;;;1.25;;
24713;SDS011;12820;51.580;5.010;2022-08-07T15:41:10;2.60;;;1.20;;
24713;SDS011;12820;51.580;5.010;2022-08-07T15:46:38;2.88;;;1.25;;
24713;SDS011;12820;51.580;5.010;2022-08-07T15:52:11;3.92;;;1.45;;
24713;SDS011;12820;51.580;5.010;2022-08-07T15:57:25;5.13;;;1.80;;
24713;SDS011;12820;51.580;5.010;2022-08-07T16:02:56;4.35;;;1.50;;
24713;SDS011;12820;51.580;5.010;2022-08-07T16:08:03;2.78;;;1.40;;
24713;SDS011;12820;51.580;5.010;2022-08-07T16:24:49;3.83;;;1.58;;
24713;SDS011;12820;51.580;5.010;2022-08-07T16:30:31;3.30;;;1.20;;
24713;SDS011;12820;51.580;5.010;2022-08-07T16:35:37;3.83;;;1.20;;
24713;SDS011;12820;51.580;5.010;2022-08-07T16:46:40;3.50;;;1.40;;
24713;SDS011;12820;51.580;5.010;2022-08-07T16:57:52;6.47;;;1.40;;
24713;SDS011;12820;51.580;5.010;2022-08-07T17:09:06;4.95;;;1.60;;
24713;SDS011;12820;51.580;5.010;2022-08-07T17:14:22;4.43;;;1.38;;
24713;SDS011;12820;51.580;5.010;2022-08-07T17:19:43;2.97;;;1.27;;
24713;SDS011;12820;51.580;5.010;2022-08-07T17:25:12;6.22;;;1.80;;
24713;SDS011;12820;51.580;5.010;2022-08-07T17:30:17;5.68;;;1.50;;
24713;SDS011;12820;51.580;5.010;2022-08-07T17:46:49;4.53;;;1.80;;
24713;SDS011;12820;51.580;5.010;2022-08-07T17:52:10;2.70;;;1.27;;
24713;SDS011;12820;51.580;5.010;2022-08-07T17:57:28;3.90;;;1.48;;
24713;SDS011;12820;51.580;5.010;2022-08-07T18:02:57;7.13;;;1.63;;
24713;SDS011;12820;51.580;5.010;2022-08-07T18:08:24;4.35;;;1.60;;
24713;SDS011;12820;51.580;5.010;2022-08-07T18:19:09;3.45;;;1.30;;
24713;SDS011;12820;51.580;5.010;2022-08-07T18:24:46;4.38;;;2.00;;
24713;SDS011;12820;51.580;5.010;2022-08-07T18:29:56;3.87;;;1.40;;
24713;SDS011;12820;51.580;5.010;2022-08-07T18:46:17;3.83;;;1.80;;
24713;SDS011;12820;51.580;5.010;2022-08-07T18:51:30;5.60;;;1.98;;
24713;SDS011;12820;51.580;5.010;2022-08-07T18:57:08;6.95;;;2.10;;
24713;SDS011;12820;51.580;5.010;2022-08-07T19:02:37;6.57;;;2.30;;
24713;SDS011;12820;51.580;5.010;2022-08-07T19:07:59;6.25;;;2.30;;
24713;SDS011;12820;51.580;5.010;2022-08-07T19:23:51;6.75;;;2.40;;
24713;SDS011;12820;51.580;5.010;2022-08-07T19:29:01;5.20;;;2.43;;
24713;SDS011;12820;51.580;5.010;2022-08-07T19:34:27;5.25;;;2.33;;
24713;SDS011;12820;51.580;5.010;2022-08-07T19:39:35;6.50;;;2.35;;
24713;SDS011;12820;51.580;5.010;2022-08-07T19:44:59;4.75;;;2.35;;
24713;SDS011;12820;51.580;5.010;2022-08-07T19:50:10;6.07;;;3.03;;
24713;SDS011;12820;51.580;5.010;2022-08-07T19:55:32;8.20;;;4.05;;
24713;SDS011;12820;51.580;5.010;2022-08-07T20:00:55;8.00;;;2.95;;
24713;SDS011;12820;51.580;5.010;2022-08-07T20:05:59;6.15;;;3.15;;
24713;SDS011;12820;51.580;5.010;2022-08-07T20:11:05;5.75;;;2.65;;
24713;SDS011;12820;51.580;5.010;2022-08-07T20:16:15;5.97;;;3.00;;
24713;SDS011;12820;51.580;5.010;2022-08-07T20:21:43;6.53;;;3.08;;
24713;SDS011;12820;51.580;5.010;2022-08-07T20:26:50;6.35;;;3.00;;
24713;SDS011;12820;51.580;5.010;2022-08-07T20:31:57;6.35;;;3.10;;
24713;SDS011;12820;51.580;5.010;2022-08-07T20:37:02;6.82;;;3.08;;
24713;SDS011;12820;51.580;5.010;2022-08-07T20:42:08;6.30;;;2.92;;
24713;SDS011;12820;51.580;5.010;2022-08-07T20:47:12;7.28;;;3.35;;
24713;SDS011;12820;51.580;5.010;2022-08-07T20:52:25;5.88;;;3.22;;
24713;SDS011;12820;51.580;5.010;2022-08-07T20:57:49;6.32;;;3.20;;
24713;SDS011;12820;51.580;5.010;2022-08-07T21:03:05;8.73;;;3.60;;
24713;SDS011;12820;51.580;5.010;2022-08-07T21:08:11;5.50;;;3.20;;
24713;SDS011;12820;51.580;5.010;2022-08-07T21:13:47;9.38;;;3.50;;
24713;SDS011;12820;51.580;5.010;2022-08-07T21:19:12;7.30;;;3.33;;
24713;SDS011;12820;51.580;5.010;2022-08-07T21:24:25;8.18;;;3.78;;
24713;SDS011;12820;51.580;5.010;2022-08-07T21:29:43;8.55;;;3.92;;
24713;SDS011;12820;51.580;5.010;2022-08-07T21:35:04;7.47;;;3.45;;
24713;SDS011;12820;51.580;5.010;2022-08-07T21:40:14;7.00;;;3.53;;
24713;SDS011;12820;51.580;5.010;2022-08-07T21:45:27;9.77;;;4.07;;
24713;SDS011;12820;51.580;5.010;2022-08-07T21:51:01;6.47;;;3.60;;
24713;SDS011;12820;51.580;5.010;2022-08-07T21:56:29;8.10;;;3.70;;
24713;SDS011;12820;51.580;5.010;2022-08-07T22:07:19;9.77;;;4.38;;
24713;SDS011;12820;51.580;5.010;2022-08-07T22:12:51;8.93;;;4.22;;
24713;SDS011;12820;51.580;5.010;2022-08-07T22:17:57;8.02;;;4.38;;
24713;SDS011;12820;51.580;5.010;2022-08-07T22:23:10;7.28;;;3.92;;
24713;SDS011;12820;51.580;5.010;2022-08-07T22:28:28;7.57;;;4.25;;
24713;SDS011;12820;51.580;5.010;2022-08-07T22:33:40;8.68;;;4.97;;
24713;SDS011;12820;51.580;5.010;2022-08-07T22:39:00;7.78;;;4.20;;
24713;SDS011;12820;51.580;5.010;2022-08-07T22:44:09;8.48;;;4.43;;
24713;SDS011;12820;51.580;5.010;2022-08-07T23:00:22;8.70;;;4.90;;
24713;SDS011;12820;51.580;5.010;2022-08-07T23:21:49;13.40;;;5.82;;
24713;SDS011;12820;51.580;5.010;2022-08-07T23:27:19;11.05;;;5.60;;
24713;SDS011;12820;51.580;5.010;2022-08-07T23:33:09;10.02;;;5.75;;
24713;SDS011;12820;51.580;5.010;2022-08-07T23:44:23;10.95;;;6.43;;
